Time;durP1;ratioP1;P1;durP2;ratioP2;P2;SDS_P1;SDS_P2;PMS_P1;PMS_P2;Temp;Humidity;BMP_temperature;BMP_pressure;BME280_temperature;BME280_humidity;BME280_pressure;Samples;Min_cycle;Max_cycle;Signal;HPM_P1;HPM_P2
2022/06/28 00:00:07;;;;;;;8.07;5.68;;;13.40;99.90;;;;;;5054706;28;20059;-81
2022/06/28 00:02:33;;;;;;;9.48;6.20;;;13.30;99.90;;;;;;5055113;28;20510;-81
2022/06/28 00:04:59;;;;;;;8.88;6.18;;;13.20;99.90;;;;;;5055387;28;20086;-81
2022/06/28 00:07:24;;;;;;;13.52;7.50;;;13.20;99.90;;;;;;5055007;28;20043;-81
2022/06/28 00:09:50;;;;;;;8.82;6.65;;;13.30;99.90;;;;;;5054589;28;20452;-81
2022/06/28 00:12:15;;;;;;;10.15;6.22;;;13.20;99.90;;;;;;5055125;28;20123;-81
2022/06/28 00:17:26;;;;;;;13.02;7.53;;;13.20;99.90;;;;;;5054584;28;20097;-81
2022/06/28 00:19:52;;;;;;;11.65;7.10;;;13.10;99.90;;;;;;5054547;28;20470;-81
2022/06/28 00:22:17;;;;;;;11.02;7.40;;;13.20;99.90;;;;;;5054387;28;20036;-81
2022/06/28 00:24:43;;;;;;;10.85;7.45;;;13.20;99.90;;;;;;5055204;28;20755;-81
2022/06/28 00:27:09;;;;;;;12.63;8.13;;;13.20;99.90;;;;;;5054256;28;20044;-81
2022/06/28 00:29:35;;;;;;;11.15;8.15;;;13.20;99.90;;;;;;5054748;28;20048;-81
2022/06/28 00:32:00;;;;;;;12.10;8.80;;;13.20;99.90;;;;;;5054513;28;20040;-81
2022/06/28 00:34:26;;;;;;;13.38;8.45;;;13.20;99.90;;;;;;5071140;28;20110;-81
2022/06/28 00:36:52;;;;;;;11.30;8.45;;;13.10;99.90;;;;;;5072481;28;20079;-81
2022/06/28 00:39:17;;;;;;;13.50;8.38;;;13.10;99.90;;;;;;5054480;28;20033;-81
2022/06/28 00:41:43;;;;;;;12.45;7.65;;;13.10;99.90;;;;;;5054564;28;20357;-81
2022/06/28 00:44:13;;;;;;;12.23;7.85;;;13.10;99.90;;;;;;5054554;28;20040;-81
2022/06/28 00:46:39;;;;;;;13.38;9.13;;;13.00;99.90;;;;;;5072395;28;20032;-81
2022/06/28 00:49:05;;;;;;;16.15;7.65;;;13.00;99.90;;;;;;5054677;28;20487;-81
2022/06/28 00:51:32;;;;;;;13.90;7.90;;;13.00;99.90;;;;;;5054142;28;20045;-81
2022/06/28 00:53:57;;;;;;;11.18;8.05;;;13.10;99.90;;;;;;5055096;28;20032;-81
2022/06/28 00:56:23;;;;;;;11.60;7.93;;;13.00;99.90;;;;;;5055076;28;20078;-81
2022/06/28 00:58:50;;;;;;;15.20;8.80;;;13.00;99.90;;;;;;5054929;28;20371;-81
2022/06/28 01:01:16;;;;;;;13.43;7.22;;;13.00;99.90;;;;;;5054909;28;20094;-81
2022/06/28 01:03:42;;;;;;;12.60;8.57;;;12.90;99.90;;;;;;5037874;28;20040;-81
2022/06/28 01:06:07;;;;;;;12.07;7.93;;;12.90;99.90;;;;;;5054912;28;20040;-81
2022/06/28 01:08:33;;;;;;;14.65;8.45;;;12.90;99.90;;;;;;5055085;28;20484;-82
2022/06/28 01:11:18;;;;;;;10.23;8.35;;;12.90;99.90;;;;;;5054380;28;20040;-81
2022/06/28 01:13:47;;;;;;;11.48;7.63;;;13.00;99.90;;;;;;5054606;28;20055;-81
2022/06/28 01:16:13;;;;;;;10.63;7.43;;;12.90;99.90;;;;;;5072564;28;20036;-81
2022/06/28 01:18:39;;;;;;;10.48;7.90;;;12.90;99.90;;;;;;5055255;28;20074;-81
2022/06/28 01:21:05;;;;;;;11.05;7.75;;;12.90;99.90;;;;;;5054520;28;20052;-81
2022/06/28 01:23:31;;;;;;;12.45;7.53;;;12.80;99.90;;;;;;5055203;28;20446;-81
2022/06/28 01:25:58;;;;;;;12.45;8.00;;;12.80;99.90;;;;;;5038588;28;20657;-81
2022/06/28 01:28:23;;;;;;;15.30;8.70;;;12.80;99.90;;;;;;5054840;28;20072;-81
2022/06/28 01:30:51;;;;;;;13.73;8.55;;;12.70;99.90;;;;;;5054420;28;20072;-81
2022/06/28 01:33:17;;;;;;;14.00;7.85;;;12.70;99.90;;;;;;5054772;28;20036;-82
2022/06/28 01:35:42;;;;;;;12.05;8.00;;;12.80;99.90;;;;;;5057988;28;20089;-82
2022/06/28 01:38:09;;;;;;;11.82;8.77;;;12.70;99.90;;;;;;5058911;28;20040;-81
2022/06/28 01:40:34;;;;;;;16.75;9.02;;;12.70;99.90;;;;;;5042213;28;20074;-81
2022/06/28 01:43:01;;;;;;;10.57;8.30;;;12.70;99.90;;;;;;5058809;28;20050;-81
2022/06/28 01:45:28;;;;;;;13.65;8.35;;;12.60;99.90;;;;;;5058470;28;20403;-81
2022/06/28 01:47:54;;;;;;;11.30;7.68;;;12.50;99.90;;;;;;5058812;28;20519;-82
2022/06/28 01:50:20;;;;;;;13.40;9.32;;;12.50;99.90;;;;;;5058485;28;20072;-82
2022/06/28 01:52:45;;;;;;;13.73;8.15;;;12.50;99.90;;;;;;5058731;28;20048;-82
2022/06/28 01:55:12;;;;;;;14.48;8.70;;;12.50;99.90;;;;;;5058685;28;20041;-82
2022/06/28 01:57:39;;;;;;;13.52;9.13;;;12.50;99.90;;;;;;5058610;28;20041;-82
2022/06/28 02:00:06;;;;;;;13.75;9.32;;;12.40;99.90;;;;;;5058481;28;20102;-82
2022/06/28 02:02:32;;;;;;;12.80;9.18;;;12.40;99.90;;;;;;5058196;28;20048;-82
2022/06/28 02:04:57;;;;;;;13.10;8.68;;;12.30;99.90;;;;;;5058691;28;20036;-81
2022/06/28 02:07:23;;;;;;;12.20;7.97;;;12.30;99.90;;;;;;5059049;28;20488;-81
2022/06/28 02:09:48;;;;;;;13.70;9.02;;;12.30;99.90;;;;;;5058261;28;20119;-81
2022/06/28 02:12:14;;;;;;;12.48;8.50;;;12.30;99.90;;;;;;5058665;28;20189;-81
2022/06/28 02:14:40;;;;;;;15.80;8.50;;;12.40;99.90;;;;;;5059216;28;20032;-82
2022/06/28 02:17:05;;;;;;;11.50;8.05;;;12.40;99.90;;;;;;5042083;28;20058;-81
2022/06/28 02:19:31;;;;;;;9.15;7.18;;;12.30;99.90;;;;;;5058501;28;20054;-81
2022/06/28 02:21:56;;;;;;;14.40;7.72;;;12.40;99.90;;;;;;5058625;28;20537;-81
2022/06/28 02:24:22;;;;;;;12.00;8.75;;;12.40;99.90;;;;;;5058588;28;20037;-81
2022/06/28 02:26:48;;;;;;;13.27;8.02;;;12.40;99.90;;;;;;5058061;28;20052;-81
2022/06/28 02:29:13;;;;;;;12.02;8.23;;;12.30;99.90;;;;;;5058155;28;20060;-82
2022/06/28 02:31:39;;;;;;;10.68;7.63;;;12.40;99.90;;;;;;5057924;28;20399;-82
2022/06/28 02:34:05;;;;;;;13.25;7.68;;;12.30;99.90;;;;;;5058192;28;20040;-82
2022/06/28 02:41:41;;;;;;;12.25;7.80;;;12.40;99.90;;;;;;5057990;28;20048;-81
2022/06/28 02:44:07;;;;;;;12.70;7.63;;;12.30;99.90;;;;;;5054912;28;20479;-81
2022/06/28 02:46:33;;;;;;;10.32;7.25;;;12.30;99.90;;;;;;5063739;28;20036;-81
2022/06/28 02:48:58;;;;;;;12.40;7.63;;;12.30;99.90;;;;;;5062344;28;20049;-81
2022/06/28 02:51:24;;;;;;;11.60;7.45;;;12.30;99.90;;;;;;5057064;28;20040;-81
2022/06/28 02:53:51;;;;;;;10.38;7.07;;;12.20;99.90;;;;;;5057891;28;20067;-81
2022/06/28 02:56:17;;;;;;;12.55;7.47;;;12.20;99.90;;;;;;5058537;28;20392;-81
2022/06/28 02:58:42;;;;;;;11.45;7.18;;;12.30;99.90;;;;;;5057887;28;20037;-81
2022/06/28 03:01:08;;;;;;;12.10;7.30;;;12.20;99.90;;;;;;5057841;28;20052;-81
2022/06/28 03:03:34;;;;;;;12.57;7.70;;;12.20;99.90;;;;;;5058329;28;20043;-81
2022/06/28 03:05:59;;;;;;;9.68;6.35;;;12.10;99.90;;;;;;5057940;28;20609;-81
2022/06/28 03:08:25;;;;;;;11.68;7.38;;;12.20;99.90;;;;;;5057452;28;20058;-81
2022/06/28 03:10:50;;;;;;;17.60;8.20;;;12.00;99.90;;;;;;5073204;28;20132;-80
2022/06/28 03:13:16;;;;;;;12.02;7.47;;;12.00;99.90;;;;;;5055382;28;20043;-81
2022/06/28 03:15:42;;;;;;;10.50;7.80;;;12.00;99.90;;;;;;5055646;28;20177;-80
2022/06/28 03:18:07;;;;;;;18.67;9.65;;;12.00;99.90;;;;;;5055389;28;20040;-80
2022/06/28 03:20:33;;;;;;;11.45;8.05;;;12.00;99.90;;;;;;5072955;28;20080;-81
2022/06/28 03:22:59;;;;;;;8.57;7.13;;;11.90;99.90;;;;;;5038622;28;20041;-81
2022/06/28 03:25:25;;;;;;;14.88;8.13;;;11.90;99.90;;;;;;5055173;28;20044;-81
2022/06/28 03:27:50;;;;;;;10.35;7.38;;;11.90;99.90;;;;;;5055326;28;20071;-80
2022/06/28 03:30:16;;;;;;;10.85;7.47;;;11.90;99.90;;;;;;5054851;28;20664;-80
2022/06/28 03:32:42;;;;;;;13.35;7.43;;;11.90;99.90;;;;;;5055268;28;20040;-80
2022/06/28 03:35:08;;;;;;;16.73;8.88;;;11.90;99.90;;;;;;5054937;28;20036;-81
2022/06/28 03:37:35;;;;;;;9.63;7.60;;;12.00;99.90;;;;;;5055295;28;20586;-81
2022/06/28 03:40:02;;;;;;;13.20;7.68;;;12.00;99.90;;;;;;5054581;28;20097;-81
2022/06/28 03:42:27;;;;;;;12.02;7.50;;;12.00;99.90;;;;;;5038491;28;20460;-82
2022/06/28 03:44:53;;;;;;;11.63;7.78;;;12.20;99.90;;;;;;5054719;28;20119;-81
2022/06/28 03:47:19;;;;;;;14.43;7.63;;;12.20;99.90;;;;;;5055255;28;20051;-81
2022/06/28 03:49:47;;;;;;;16.02;7.95;;;12.10;99.90;;;;;;5072446;28;20089;-81
2022/06/28 03:52:13;;;;;;;12.93;7.75;;;12.00;99.90;;;;;;5054840;28;20503;-81
2022/06/28 03:54:39;;;;;;;15.52;8.30;;;12.00;99.90;;;;;;5054794;28;20055;-81
2022/06/28 03:57:05;;;;;;;12.27;7.22;;;12.10;99.90;;;;;;5054063;28;20488;-81
2022/06/28 03:59:30;;;;;;;16.52;7.65;;;12.10;99.90;;;;;;5054648;28;20040;-81
2022/06/28 04:01:56;;;;;;;11.57;7.20;;;12.00;99.90;;;;;;5054718;28;20442;-81
2022/06/28 04:04:21;;;;;;;14.50;7.80;;;12.10;99.90;;;;;;5072641;28;20043;-81
2022/06/28 04:06:47;;;;;;;10.60;7.28;;;12.10;99.90;;;;;;5072936;28;20075;-81
2022/06/28 04:09:13;;;;;;;13.18;8.40;;;12.10;99.90;;;;;;5054400;28;20049;-82
2022/06/28 04:11:39;;;;;;;11.48;7.15;;;12.00;99.90;;;;;;5072197;28;20040;-81
2022/06/28 04:14:04;;;;;;;13.48;7.93;;;12.10;99.90;;;;;;5055053;28;20039;-81
2022/06/28 04:16:30;;;;;;;10.98;6.95;;;12.20;99.90;;;;;;5072607;28;20066;-81
2022/06/28 04:18:56;;;;;;;10.32;6.43;;;12.10;99.90;;;;;;5072650;28;20755;-81
2022/06/28 04:21:21;;;;;;;9.88;6.60;;;12.20;99.90;;;;;;5072123;28;20040;-81
2022/06/28 04:23:47;;;;;;;9.57;7.00;;;12.20;99.90;;;;;;5037638;28;20132;-81
2022/06/28 04:26:13;;;;;;;11.20;7.25;;;12.20;99.90;;;;;;5054407;28;20040;-81
2022/06/28 04:28:39;;;;;;;12.48;7.05;;;12.40;99.90;;;;;;5054555;28;20036;-80
2022/06/28 04:31:05;;;;;;;13.43;7.88;;;12.40;99.90;;;;;;5053823;28;20040;-81
2022/06/28 04:33:31;;;;;;;12.70;7.13;;;12.40;99.90;;;;;;5054365;28;20050;-81
2022/06/28 04:35:57;;;;;;;11.65;6.70;;;12.40;99.90;;;;;;5054037;28;20479;-81
2022/06/28 04:38:23;;;;;;;17.20;7.75;;;12.50;99.90;;;;;;5054138;28;20384;-81
2022/06/28 04:40:48;;;;;;;16.13;7.20;;;12.50;99.90;;;;;;5054173;28;20041;-81
2022/06/28 04:43:14;;;;;;;13.00;6.60;;;12.70;99.90;;;;;;5072234;28;20043;-81
2022/06/28 04:45:40;;;;;;;12.48;6.97;;;12.70;99.90;;;;;;5053802;28;20054;-81
2022/06/28 04:48:06;;;;;;;17.08;9.80;;;12.80;99.90;;;;;;5054094;28;20051;-81
2022/06/28 04:50:31;;;;;;;26.77;15.90;;;12.80;99.90;;;;;;5071393;28;20094;-82
2022/06/28 04:52:58;;;;;;;23.92;13.77;;;13.10;99.90;;;;;;5053605;28;20040;-81
2022/06/28 04:55:23;;;;;;;17.15;10.85;;;13.40;99.90;;;;;;5053764;28;20076;-82
2022/06/28 04:57:49;;;;;;;14.75;9.77;;;13.60;99.90;;;;;;5054063;28;20083;-81
2022/06/28 05:00:15;;;;;;;14.57;7.95;;;13.70;99.90;;;;;;5053533;28;20379;-82
2022/06/28 05:02:41;;;;;;;15.07;8.45;;;13.80;99.90;;;;;;5071586;28;20135;-82
2022/06/28 05:05:08;;;;;;;12.23;7.75;;;13.80;99.90;;;;;;5053476;28;20059;-82
2022/06/28 05:07:34;;;;;;;12.35;8.00;;;14.00;99.90;;;;;;5053414;28;20040;-81
2022/06/28 05:10:01;;;;;;;15.38;7.50;;;14.30;99.90;;;;;;5053418;28;20047;-81
2022/06/28 05:12:26;;;;;;;16.30;7.35;;;14.60;99.90;;;;;;5071269;28;20124;-82
2022/06/28 05:14:52;;;;;;;11.10;6.88;;;15.10;99.90;;;;;;5071244;28;20120;-81
2022/06/28 05:17:18;;;;;;;18.50;6.20;;;15.80;99.90;;;;;;5053532;28;20044;-81
2022/06/28 05:19:44;;;;;;;12.55;6.40;;;16.40;99.90;;;;;;5072090;28;20039;-81
2022/06/28 05:22:10;;;;;;;12.13;6.30;;;17.00;99.90;;;;;;5053986;28;20102;-80
2022/06/28 05:24:36;;;;;;;17.85;9.18;;;17.40;99.90;;;;;;5072304;28;20032;-80
2022/06/28 05:27:03;;;;;;;14.05;8.32;;;17.90;99.90;;;;;;5071261;28;20043;-80
2022/06/28 05:29:29;;;;;;;9.25;6.32;;;18.40;99.90;;;;;;5038300;28;20106;-81
2022/06/28 05:31:55;;;;;;;8.07;5.35;;;18.80;99.90;;;;;;5055168;28;20072;-80
2022/06/28 05:34:21;;;;;;;8.60;4.80;;;19.00;99.90;;;;;;5054932;28;20113;-81
2022/06/28 05:36:46;;;;;;;7.50;5.32;;;19.30;99.90;;;;;;5078165;28;20052;-82
2022/06/28 05:39:12;;;;;;;9.20;4.93;;;19.50;99.90;;;;;;5097006;28;20034;-81
2022/06/28 05:41:38;;;;;;;7.13;4.10;;;19.80;99.90;;;;;;5077560;28;20045;-81
2022/06/28 05:44:04;;;;;;;7.68;4.13;;;20.00;99.90;;;;;;5053360;28;20040;-81
2022/06/28 05:46:30;;;;;;;10.57;4.40;;;20.20;99.90;;;;;;5053164;28;20111;-82
2022/06/28 05:48:56;;;;;;;5.38;3.67;;;20.40;99.90;;;;;;5053150;28;20339;-81
2022/06/28 05:51:21;;;;;;;7.30;3.78;;;20.60;99.90;;;;;;5052638;28;20041;-82
2022/06/28 05:53:47;;;;;;;7.78;3.97;;;20.70;99.90;;;;;;5071566;28;20032;-82
2022/06/28 05:56:13;;;;;;;10.10;3.70;;;20.90;99.90;;;;;;5053750;28;20380;-82
2022/06/28 05:58:38;;;;;;;7.47;3.25;;;21.10;99.90;;;;;;5053343;28;20048;-75
2022/06/28 06:01:04;;;;;;;7.45;3.47;;;21.30;99.90;;;;;;5070903;28;20051;-75
2022/06/28 06:03:30;;;;;;;6.60;3.05;;;21.50;99.90;;;;;;5052802;28;20047;-76
2022/06/28 06:05:56;;;;;;;11.40;4.05;;;21.70;99.90;;;;;;5052772;28;20115;-75
2022/06/28 06:08:21;;;;;;;11.02;4.00;;;21.70;99.90;;;;;;5053066;28;20115;-75
2022/06/28 06:10:47;;;;;;;6.45;2.80;;;21.90;99.90;;;;;;5052938;28;20044;-75
2022/06/28 06:13:13;;;;;;;6.68;2.83;;;22.00;99.90;;;;;;5053304;28;20044;-75
2022/06/28 06:15:38;;;;;;;7.43;2.97;;;22.10;99.90;;;;;;5053408;28;20506;-75
2022/06/28 06:18:04;;;;;;;6.25;3.03;;;22.10;99.90;;;;;;5053126;28;20047;-75
2022/06/28 06:20:30;;;;;;;6.68;2.80;;;22.30;99.90;;;;;;5053994;28;20043;-75
2022/06/28 06:22:55;;;;;;;5.75;3.00;;;22.40;99.90;;;;;;5040358;28;20265;-75
2022/06/28 06:25:21;;;;;;;8.88;3.20;;;22.50;99.90;;;;;;5056890;28;20040;-75
2022/06/28 06:27:47;;;;;;;6.68;2.90;;;22.60;99.90;;;;;;5056569;28;20494;-75
2022/06/28 06:30:13;;;;;;;5.35;2.80;;;22.60;99.90;;;;;;5056661;28;20048;-75
2022/06/28 06:32:39;;;;;;;8.68;2.90;;;22.70;99.90;;;;;;5074745;28;20037;-75
2022/06/28 06:35:05;;;;;;;8.88;2.90;;;22.80;99.90;;;;;;5056340;28;20037;-76
2022/06/28 06:37:31;;;;;;;9.90;2.83;;;22.80;99.90;;;;;;5056487;28;20464;-76
2022/06/28 06:39:56;;;;;;;9.02;3.00;;;22.90;99.90;;;;;;5056086;28;20123;-75
2022/06/28 06:42:22;;;;;;;6.80;2.78;;;23.00;99.90;;;;;;5074298;28;20078;-76
2022/06/28 06:44:47;;;;;;;7.88;2.83;;;23.20;99.90;;;;;;5056390;28;20036;-76
2022/06/28 06:47:13;;;;;;;5.95;2.72;;;23.30;99.90;;;;;;5056342;28;20036;-76
2022/06/28 06:49:39;;;;;;;6.75;3.08;;;23.40;99.90;;;;;;5055920;28;20033;-76
2022/06/28 06:52:05;;;;;;;9.10;3.03;;;23.50;99.90;;;;;;5056105;28;20032;-75
2022/06/28 06:54:30;;;;;;;7.85;2.78;;;23.50;99.90;;;;;;5056079;28;20058;-75
2022/06/28 06:56:56;;;;;;;5.32;2.92;;;23.70;99.90;;;;;;5056044;28;20047;-76
2022/06/28 06:59:22;;;;;;;6.57;3.00;;;23.80;99.90;;;;;;5056089;28;20510;-76
2022/06/28 07:01:48;;;;;;;7.13;3.30;;;23.80;99.90;;;;;;5055538;28;20059;-76
2022/06/28 07:04:15;;;;;;;6.68;3.10;;;23.80;99.90;;;;;;5055755;28;20056;-76
2022/06/28 07:06:40;;;;;;;10.13;3.55;;;23.80;99.90;;;;;;5055993;28;20098;-76
2022/06/28 07:09:06;;;;;;;8.77;3.60;;;23.90;99.90;;;;;;5039334;28;20476;-76
2022/06/28 07:11:33;;;;;;;6.32;3.42;;;24.00;99.90;;;;;;5055636;28;20048;-76
2022/06/28 07:13:58;;;;;;;7.43;3.40;;;24.10;99.90;;;;;;5039358;28;20115;-76
2022/06/28 07:16:24;;;;;;;9.23;2.80;;;24.20;99.90;;;;;;5073431;28;20124;-76
2022/06/28 07:18:49;;;;;;;6.40;2.50;;;24.40;99.90;;;;;;5073433;28;20033;-75
2022/06/28 07:21:15;;;;;;;6.05;2.80;;;24.10;99.90;;;;;;5073670;28;20032;-75
2022/06/28 07:23:41;;;;;;;5.68;2.40;;;23.40;99.90;;;;;;5055760;28;20052;-75
2022/06/28 07:26:07;;;;;;;10.77;3.63;;;22.80;99.90;;;;;;5055208;28;20097;-75
2022/06/28 07:28:33;;;;;;;13.98;3.22;;;22.80;99.90;;;;;;5072411;28;20068;-75
2022/06/28 07:30:59;;;;;;;7.28;3.17;;;22.70;99.90;;;;;;5053816;28;20091;-75
2022/06/28 07:33:24;;;;;;;10.00;3.40;;;22.70;99.90;;;;;;5070930;28;20044;-75
2022/06/28 07:35:50;;;;;;;7.25;3.05;;;23.00;99.90;;;;;;5054035;28;20036;-75
2022/06/28 07:38:15;;;;;;;10.30;3.17;;;23.30;99.90;;;;;;5071924;28;20036;-75
2022/06/28 07:40:41;;;;;;;8.75;2.72;;;23.70;99.90;;;;;;5053267;28;20045;-76
2022/06/28 07:43:07;;;;;;;9.13;2.10;;;24.10;99.90;;;;;;5053537;28;20040;-75
2022/06/28 07:45:36;;;;;;;7.40;2.17;;;23.90;99.90;;;;;;5071284;28;20040;-75
2022/06/28 07:48:02;;;;;;;6.25;2.40;;;23.40;99.90;;;;;;5053480;28;20036;-75
2022/06/28 07:53:12;;;;;;;9.32;2.05;;;22.50;99.90;;;;;;5053681;28;20091;-75
2022/06/28 07:55:38;;;;;;;7.70;2.17;;;22.00;99.90;;;;;;5071773;28;20072;-75
2022/06/28 07:58:04;;;;;;;11.20;2.97;;;21.90;99.90;;;;;;5053859;28;20048;-75
2022/06/28 08:00:29;;;;;;;7.68;2.20;;;22.20;99.90;;;;;;5036855;28;20045;-75
2022/06/28 08:02:55;;;;;;;8.05;2.00;;;22.50;99.90;;;;;;5071819;28;20440;-77
2022/06/28 08:05:21;;;;;;;5.38;2.10;;;22.50;99.90;;;;;;5053493;28;20071;-76
2022/06/28 08:07:48;;;;;;;9.57;2.40;;;22.10;99.90;;;;;;5053769;28;20385;-76
2022/06/28 08:10:14;;;;;;;6.45;2.38;;;22.00;99.90;;;;;;5070946;28;20045;-75
2022/06/28 08:12:40;;;;;;;7.63;1.98;;;21.90;99.90;;;;;;5053666;28;20040;-75
2022/06/28 08:15:07;;;;;;;9.23;2.65;;;21.80;99.90;;;;;;5053215;28;20518;-75
2022/06/28 08:17:33;;;;;;;6.78;2.00;;;21.80;99.90;;;;;;5053392;28;20040;-75
2022/06/28 08:19:59;;;;;;;6.15;1.70;;;22.10;99.90;;;;;;5050804;28;20037;-76
2022/06/28 08:22:24;;;;;;;7.13;1.88;;;22.60;99.90;;;;;;5042308;28;20052;-76
2022/06/28 08:24:50;;;;;;;5.53;1.65;;;23.00;99.90;;;;;;5050447;28;20419;-77
2022/06/28 08:27:16;;;;;;;7.05;1.48;;;23.40;99.90;;;;;;5024928;28;1062191;-77
2022/06/28 08:29:42;;;;;;;4.70;1.67;;;23.50;99.90;;;;;;5053223;28;20400;-77
2022/06/28 08:32:10;;;;;;;9.30;1.75;;;23.50;99.90;;;;;;5053705;28;20040;-76
2022/06/28 08:34:36;;;;;;;6.43;1.50;;;23.70;99.90;;;;;;5052811;28;20111;-76
2022/06/28 08:37:02;;;;;;;5.90;1.27;;;24.00;99.90;;;;;;5069623;28;20036;-77
2022/06/28 08:39:28;;;;;;;9.45;1.70;;;23.90;99.90;;;;;;5048658;28;20060;-77
2022/06/28 08:41:54;;;;;;;6.03;1.60;;;23.90;99.90;;;;;;5066082;28;20036;-77
2022/06/28 08:44:21;;;;;;;5.65;1.38;;;24.00;99.90;;;;;;5043972;28;20048;-76
2022/06/28 08:46:51;;;;;;;3.53;1.30;;;24.20;99.90;;;;;;5053471;28;20048;-77
2022/06/28 08:49:33;;;;;;;6.10;1.48;;;24.30;99.90;;;;;;5053440;28;20098;-77
2022/06/28 08:51:59;;;;;;;4.55;1.27;;;24.50;99.90;;;;;;5053321;28;20110;-77
2022/06/28 08:54:26;;;;;;;6.15;1.63;;;24.60;99.90;;;;;;5069204;28;20091;-76
2022/06/28 08:56:53;;;;;;;6.82;1.33;;;24.30;99.90;;;;;;5053701;28;20036;-77
2022/06/28 08:59:18;;;;;;;5.40;1.20;;;24.10;99.90;;;;;;5071240;28;20036;-77
2022/06/28 09:01:44;;;;;;;5.57;1.00;;;24.20;99.90;;;;;;5052950;28;20166;-77
2022/06/28 09:04:11;;;;;;;9.63;1.98;;;24.40;99.90;;;;;;5066054;28;20488;-77
2022/06/28 09:06:37;;;;;;;4.95;1.55;;;24.30;99.90;;;;;;5053544;28;20119;-77
2022/06/28 09:09:03;;;;;;;5.50;1.98;;;24.40;99.90;;;;;;5050508;28;20086;-77
2022/06/28 09:11:41;;;;;;;10.43;2.08;;;24.40;99.90;;;;;;5044597;28;20045;-77
2022/06/28 09:14:34;;;;;;;7.10;1.40;;;24.10;99.90;;;;;;5053528;28;20514;-77
2022/06/28 09:17:16;;;;;;;3.47;1.58;;;23.60;99.90;;;;;;5050191;28;20044;-78
2022/06/28 09:19:42;;;;;;;3.88;1.60;;;23.50;99.90;;;;;;5049157;28;20503;-77
2022/06/28 09:22:07;;;;;;;7.70;1.73;;;23.50;99.90;;;;;;5045101;28;20041;-78
2022/06/28 09:24:34;;;;;;;6.75;1.45;;;23.80;99.90;;;;;;5034307;28;20403;-77
2022/06/28 09:27:09;;;;;;;7.55;1.35;;;24.00;99.90;;;;;;5049244;28;20040;-77
2022/06/28 09:29:48;;;;;;;4.43;1.48;;;24.40;99.90;;;;;;5053576;28;20044;-77
2022/06/28 09:32:14;;;;;;;5.35;1.10;;;24.70;99.90;;;;;;5071282;28;20480;-76
2022/06/28 09:35:01;;;;;;;8.65;1.67;;;24.70;99.90;;;;;;5053395;28;20033;-76
2022/06/28 09:37:39;;;;;;;7.57;1.70;;;24.90;99.10;;;;;;5039506;28;20059;-81
2022/06/28 09:40:26;;;;;;;2.50;1.17;;;24.90;95.40;;;;;;5034618;28;20563;-77
2022/06/28 09:43:08;;;;;;;3.28;1.27;;;24.80;96.00;;;;;;5052970;28;20128;-76
2022/06/28 09:45:35;;;;;;;2.28;1.15;;;24.70;98.40;;;;;;5048649;28;20048;-76
2022/06/28 09:48:02;;;;;;;3.10;1.08;;;24.70;98.90;;;;;;5033204;28;20504;-77
2022/06/28 09:50:30;;;;;;;4.50;1.25;;;24.70;98.30;;;;;;5040839;28;20485;-76
2022/06/28 09:52:57;;;;;;;6.45;1.33;;;24.60;97.60;;;;;;5047755;28;20377;-77
2022/06/28 09:55:26;;;;;;;3.47;1.00;;;24.70;97.40;;;;;;5051086;28;20055;-78
2022/06/28 09:57:52;;;;;;;5.53;0.90;;;25.00;94.50;;;;;;5068314;28;20127;-77
2022/06/28 10:00:24;;;;;;;4.60;0.95;;;25.20;92.40;;;;;;5063420;28;20093;-77
2022/06/28 10:02:51;;;;;;;3.47;1.48;;;25.40;90.60;;;;;;5050733;28;20040;-77
2022/06/28 10:05:17;;;;;;;4.72;1.23;;;25.40;90.20;;;;;;5056276;28;20578;-77
2022/06/28 10:07:44;;;;;;;4.93;1.00;;;25.60;90.50;;;;;;5074298;28;20380;-77
2022/06/28 10:10:10;;;;;;;3.38;1.05;;;25.70;89.80;;;;;;5037593;28;20426;-77
2022/06/28 10:15:25;;;;;;;2.67;0.95;;;25.70;87.30;;;;;;5055365;28;20051;-76
2022/06/28 10:18:11;;;;;;;6.10;1.05;;;25.50;90.60;;;;;;5047989;28;20028;-76
2022/06/28 10:20:38;;;;;;;10.00;1.05;;;25.60;90.40;;;;;;5046680;28;20158;-76
2022/06/28 10:23:27;;;;;;;3.58;1.20;;;25.70;90.40;;;;;;5056101;28;20518;-76
2022/06/28 10:26:11;;;;;;;7.50;1.20;;;25.80;93.60;;;;;;5054627;28;20068;-77
2022/06/28 10:29:09;;;;;;;4.68;0.82;;;25.80;90.50;;;;;;5046932;28;20040;-76
2022/06/28 10:31:42;;;;;;;4.57;1.00;;;26.00;84.30;;;;;;5047969;28;20146;-77
2022/06/28 10:34:12;;;;;;;5.88;1.00;;;26.20;77.30;;;;;;5073670;28;20049;-76
2022/06/28 10:36:48;;;;;;;7.55;1.10;;;26.50;72.50;;;;;;5056134;28;20059;-80
2022/06/28 10:39:16;;;;;;;4.03;1.42;;;26.50;72.50;;;;;;5049786;28;20495;-76
2022/06/28 10:41:58;;;;;;;2.47;0.70;;;26.30;73.70;;;;;;5048574;28;20116;-76
2022/06/28 10:44:27;;;;;;;6.85;1.02;;;26.40;70.70;;;;;;5045413;28;20369;-76
2022/06/28 10:47:01;;;;;;;4.85;1.13;;;26.30;70.50;;;;;;5055318;28;20127;-75
2022/06/28 10:49:51;;;;;;;4.63;1.13;;;26.20;71.90;;;;;;5049128;28;20045;-76
2022/06/28 10:52:26;;;;;;;5.82;1.40;;;26.20;65.70;;;;;;5044405;28;20124;-76
2022/06/28 10:54:52;;;;;;;5.45;0.77;;;26.10;73.10;;;;;;5046320;28;20483;-76
2022/06/28 10:57:28;;;;;;;3.45;1.10;;;26.30;74.20;;;;;;5049676;28;20044;-76
2022/06/28 10:59:55;;;;;;;6.32;1.02;;;26.40;76.60;;;;;;5048646;28;20067;-76
2022/06/28 11:02:22;;;;;;;3.90;1.00;;;26.50;73.90;;;;;;5048361;28;21284;-76
2022/06/28 11:05:05;;;;;;;8.32;1.60;;;26.50;74.50;;;;;;5066146;28;20051;-76
2022/06/28 11:07:34;;;;;;;4.57;1.17;;;26.20;70.90;;;;;;5052723;28;20503;-76
2022/06/28 11:09:59;;;;;;;8.93;1.40;;;25.80;68.60;;;;;;5049723;28;20036;-76
2022/06/28 11:12:28;;;;;;;10.75;2.25;;;25.60;72.20;;;;;;5069515;28;20040;-76
2022/06/28 11:14:58;;;;;;;7.35;1.23;;;25.40;73.60;;;;;;5034438;28;20044;-76
2022/06/28 11:17:28;;;;;;;4.47;0.95;;;25.20;77.10;;;;;;5045999;28;20048;-76
2022/06/28 11:19:56;;;;;;;4.10;0.98;;;24.90;83.80;;;;;;5048490;28;20392;-76
2022/06/28 11:22:28;;;;;;;4.95;1.17;;;24.70;82.00;;;;;;5048154;28;20113;-76
2022/06/28 11:24:55;;;;;;;5.28;0.90;;;24.60;83.60;;;;;;5046283;28;20045;-76
2022/06/28 11:27:22;;;;;;;3.47;0.95;;;24.90;87.90;;;;;;5031465;28;20048;-76
2022/06/28 11:30:00;;;;;;;4.78;1.02;;;25.10;82.50;;;;;;5060409;28;20235;-76
2022/06/28 11:32:34;;;;;;;3.42;0.80;;;25.50;76.50;;;;;;5047347;28;20974;-74
2022/06/28 11:35:10;;;;;;;4.43;1.00;;;25.60;72.80;;;;;;5045185;28;20069;-75
2022/06/28 11:38:09;;;;;;;4.07;1.00;;;25.80;74.50;;;;;;5046311;28;20396;-75
2022/06/28 11:40:41;;;;;;;4.93;1.17;;;25.70;68.50;;;;;;5045375;28;20478;-76
2022/06/28 11:43:11;;;;;;;3.05;0.70;;;25.30;79.50;;;;;;5046232;28;20075;-75
2022/06/28 11:45:41;;;;;;;3.90;0.90;;;25.30;83.00;;;;;;5047036;28;20043;-75
2022/06/28 11:48:13;;;;;;;3.13;0.75;;;25.50;76.80;;;;;;5042441;28;20040;-75
2022/06/28 11:50:42;;;;;;;3.97;0.77;;;25.60;67.60;;;;;;5033882;28;20045;-75
2022/06/28 11:53:08;;;;;;;2.55;0.95;;;25.50;67.60;;;;;;5044727;28;20109;-74
2022/06/28 11:55:45;;;;;;;3.65;0.88;;;25.60;67.90;;;;;;5053872;28;20072;-75
2022/06/28 11:58:25;;;;;;;3.92;0.93;;;25.70;64.10;;;;;;5050498;28;20120;-75
2022/06/28 12:01:03;;;;;;;3.45;0.90;;;26.00;62.90;;;;;;5046531;28;20071;-75
2022/06/28 12:03:30;;;;;;;3.53;0.88;;;26.30;63.40;;;;;;5054038;28;20036;-75
2022/06/28 12:05:57;;;;;;;4.30;0.93;;;26.30;62.10;;;;;;5053050;28;20040;-75
2022/06/28 12:08:41;;;;;;;1.92;0.70;;;26.30;64.30;;;;;;5045551;28;20048;-75
2022/06/28 12:11:06;;;;;;;3.90;0.85;;;26.50;62.00;;;;;;5052002;28;20044;-75
2022/06/28 12:13:32;;;;;;;4.45;0.95;;;26.60;62.00;;;;;;5059214;28;20048;-75
2022/06/28 12:15:58;;;;;;;2.95;1.00;;;26.70;59.50;;;;;;5049200;28;20497;-75
2022/06/28 12:18:24;;;;;;;4.78;0.88;;;26.80;59.20;;;;;;5044056;28;20135;-75
2022/06/28 12:20:57;;;;;;;5.55;1.23;;;26.80;60.00;;;;;;5053184;28;20121;-75
2022/06/28 12:23:22;;;;;;;4.97;1.15;;;26.70;57.60;;;;;;5049446;28;20090;-75
2022/06/28 12:26:00;;;;;;;2.72;0.75;;;26.60;55.90;;;;;;5047689;28;20122;-76
2022/06/28 12:28:26;;;;;;;2.90;0.95;;;26.50;57.80;;;;;;5043878;28;20411;-75
2022/06/28 12:30:51;;;;;;;3.65;0.77;;;26.40;59.50;;;;;;5053200;28;20036;-75
2022/06/28 12:33:17;;;;;;;2.63;0.80;;;26.40;58.30;;;;;;5053585;28;20186;-75
2022/06/28 12:35:42;;;;;;;1.30;0.60;;;26.50;58.30;;;;;;5048863;28;20033;-76
2022/06/28 12:38:08;;;;;;;5.57;1.45;;;26.50;58.50;;;;;;5045020;28;20449;-75
2022/06/28 12:40:34;;;;;;;2.95;0.73;;;26.30;57.40;;;;;;5063175;28;20036;-75
2022/06/28 12:42:59;;;;;;;5.05;0.80;;;25.90;58.10;;;;;;5056255;28;20129;-76
2022/06/28 12:45:25;;;;;;;5.55;1.20;;;25.70;63.10;;;;;;5054099;28;20426;-76
2022/06/28 12:47:50;;;;;;;4.95;1.00;;;25.70;64.20;;;;;;5053459;28;20109;-77
2022/06/28 12:50:16;;;;;;;5.20;1.10;;;26.10;61.60;;;;;;5039183;28;20037;-76
2022/06/28 12:52:43;;;;;;;3.42;0.98;;;26.50;58.90;;;;;;5046410;28;20585;-76
2022/06/28 12:55:10;;;;;;;3.25;0.68;;;26.70;57.30;;;;;;5052043;28;20487;-76
2022/06/28 12:57:36;;;;;;;3.88;0.90;;;26.80;56.40;;;;;;5050102;28;20036;-76